sensor_id;sensor_type;location;lat;lon;timestamp;noise_LAeq;noise_LA_min;noise_LA_max;noise_LA01;noise_LA95
72415;Laerm;60995;52.154;4.498;2023-06-10T00:01:52;45.93;39.51;57.27;;
72415;Laerm;60995;52.154;4.498;2023-06-10T00:04:11;45.57;39.17;57.71;;
72415;Laerm;60995;52.154;4.498;2023-06-10T00:06:28;46.08;38.85;58.07;;
72415;Laerm;60995;52.154;4.498;2023-06-10T00:08:46;45.92;39.33;53.66;;
72415;Laerm;60995;52.154;4.498;2023-06-10T00:11:03;45.64;38.84;53.88;;
72415;Laerm;60995;52.154;4.498;2023-06-10T00:13:19;45.03;39.25;53.32;;
72415;Laerm;60995;52.154;4.498;2023-06-10T00:15:35;44.79;38.99;54.87;;
72415;Laerm;60995;52.154;4.498;2023-06-10T00:17:52;45.98;39.02;56.54;;
72415;Laerm;60995;52.154;4.498;2023-06-10T00:20:10;45.45;38.78;53.46;;
72415;Laerm;60995;52.154;4.498;2023-06-10T00:22:27;45.11;38.68;53.52;;
72415;Laerm;60995;52.154;4.498;2023-06-10T00:24:45;45.06;38.93;52.99;;
72415;Laerm;60995;52.154;4.498;2023-06-10T00:27:01;45.55;39.36;55.96;;
72415;Laerm;60995;52.154;4.498;2023-06-10T00:29:19;45.43;38.88;55.66;;
72415;Laerm;60995;52.154;4.498;2023-06-10T00:31:38;45.37;38.42;54.07;;
72415;Laerm;60995;52.154;4.498;2023-06-10T00:33:54;44.77;38.82;53.61;;
72415;Laerm;60995;52.154;4.498;2023-06-10T00:36:11;44.53;38.28;54.09;;
72415;Laerm;60995;52.154;4.498;2023-06-10T00:38:27;45.16;38.12;53.61;;
72415;Laerm;60995;52.154;4.498;2023-06-10T00:40:47;45.57;38.51;53.36;;
72415;Laerm;60995;52.154;4.498;2023-06-10T00:43:03;44.67;39.05;53.83;;
72415;Laerm;60995;52.154;4.498;2023-06-10T00:45:19;44.93;38.78;53.47;;
72415;Laerm;60995;52.154;4.498;2023-06-10T00:47:36;47.71;39.39;57.93;;
72415;Laerm;60995;52.154;4.498;2023-06-10T00:49:53;45.70;38.18;56.75;;
72415;Laerm;60995;52.154;4.498;2023-06-10T00:52:11;45.20;39.47;54.35;;
72415;Laerm;60995;52.154;4.498;2023-06-10T00:54:31;45.70;38.42;52.96;;
72415;Laerm;60995;52.154;4.498;2023-06-10T00:56:49;46.00;38.74;56.40;;
72415;Laerm;60995;52.154;4.498;2023-06-10T00:59:05;44.98;38.78;53.26;;
72415;Laerm;60995;52.154;4.498;2023-06-10T01:01:24;45.29;39.45;53.38;;
72415;Laerm;60995;52.154;4.498;2023-06-10T01:03:41;44.80;39.07;53.41;;
72415;Laerm;60995;52.154;4.498;2023-06-10T01:06:08;45.57;39.47;65.50;;
72415;Laerm;60995;52.154;4.498;2023-06-10T01:11:24;45.08;39.36;56.28;;
72415;Laerm;60995;52.154;4.498;2023-06-10T01:13:45;44.61;39.05;52.98;;
72415;Laerm;60995;52.154;4.498;2023-06-10T01:16:03;45.16;39.65;53.82;;
72415;Laerm;60995;52.154;4.498;2023-06-10T01:18:19;45.35;39.64;54.39;;
72415;Laerm;60995;52.154;4.498;2023-06-10T01:20:38;45.27;40.03;53.32;;
72415;Laerm;60995;52.154;4.498;2023-06-10T01:22:56;45.27;38.97;54.46;;
72415;Laerm;60995;52.154;4.498;2023-06-10T01:25:14;46.16;39.73;56.92;;
72415;Laerm;60995;52.154;4.498;2023-06-10T01:27:37;44.75;38.89;54.39;;
72415;Laerm;60995;52.154;4.498;2023-06-10T01:30:05;46.33;39.62;53.43;;
72415;Laerm;60995;52.154;4.498;2023-06-10T01:32:37;45.16;39.44;55.97;;
72415;Laerm;60995;52.154;4.498;2023-06-10T01:34:57;44.65;38.40;53.46;;
72415;Laerm;60995;52.154;4.498;2023-06-10T01:37:18;44.92;38.89;52.58;;
72415;Laerm;60995;52.154;4.498;2023-06-10T01:39:39;45.57;39.19;64.20;;
72415;Laerm;60995;52.154;4.498;2023-06-10T01:41:57;47.40;39.27;71.15;;
72415;Laerm;60995;52.154;4.498;2023-06-10T01:44:19;44.99;38.90;53.47;;
72415;Laerm;60995;52.154;4.498;2023-06-10T01:46:37;44.52;38.31;57.31;;
72415;Laerm;60995;52.154;4.498;2023-06-10T01:48:53;45.45;39.45;58.55;;
72415;Laerm;60995;52.154;4.498;2023-06-10T01:51:09;45.00;39.18;53.46;;
72415;Laerm;60995;52.154;4.498;2023-06-10T01:53:26;44.69;38.44;54.76;;
72415;Laerm;60995;52.154;4.498;2023-06-10T01:55:42;45.37;39.71;55.03;;
72415;Laerm;60995;52.154;4.498;2023-06-10T01:57:59;45.97;39.67;53.24;;
72415;Laerm;60995;52.154;4.498;2023-06-10T02:00:16;45.15;39.18;52.68;;
72415;Laerm;60995;52.154;4.498;2023-06-10T02:02:32;45.19;39.46;57.13;;
72415;Laerm;60995;52.154;4.498;2023-06-10T02:04:50;45.32;38.71;54.78;;
72415;Laerm;60995;52.154;4.498;2023-06-10T02:07:07;44.82;39.71;54.20;;
72415;Laerm;60995;52.154;4.498;2023-06-10T02:09:23;45.44;38.64;55.13;;
72415;Laerm;60995;52.154;4.498;2023-06-10T02:11:39;44.48;39.13;55.25;;
72415;Laerm;60995;52.154;4.498;2023-06-10T02:13:57;44.69;39.03;53.39;;
72415;Laerm;60995;52.154;4.498;2023-06-10T02:16:16;44.49;38.57;52.68;;
72415;Laerm;60995;52.154;4.498;2023-06-10T02:18:33;44.72;39.11;53.21;;
72415;Laerm;60995;52.154;4.498;2023-06-10T02:20:49;45.40;39.75;52.80;;
72415;Laerm;60995;52.154;4.498;2023-06-10T02:23:06;45.36;40.41;53.73;;
72415;Laerm;60995;52.154;4.498;2023-06-10T02:25:22;45.70;39.00;59.32;;
72415;Laerm;60995;52.154;4.498;2023-06-10T02:27:38;48.47;39.60;71.40;;
72415;Laerm;60995;52.154;4.498;2023-06-10T02:29:57;44.91;38.71;53.40;;
72415;Laerm;60995;52.154;4.498;2023-06-10T02:32:16;46.10;39.55;59.86;;
72415;Laerm;60995;52.154;4.498;2023-06-10T02:34:35;46.38;39.02;57.88;;
72415;Laerm;60995;52.154;4.498;2023-06-10T02:36:52;45.14;39.22;55.26;;
72415;Laerm;60995;52.154;4.498;2023-06-10T02:39:08;45.09;39.71;53.16;;
72415;Laerm;60995;52.154;4.498;2023-06-10T02:41:25;45.10;39.67;53.19;;
72415;Laerm;60995;52.154;4.498;2023-06-10T02:43:41;45.36;39.84;62.75;;
72415;Laerm;60995;52.154;4.498;2023-06-10T02:45:57;45.39;40.24;52.46;;
72415;Laerm;60995;52.154;4.498;2023-06-10T02:48:13;46.90;40.53;56.36;;
72415;Laerm;60995;52.154;4.498;2023-06-10T02:50:30;45.93;39.32;57.22;;
72415;Laerm;60995;52.154;4.498;2023-06-10T02:52:46;45.29;39.89;55.01;;
72415;Laerm;60995;52.154;4.498;2023-06-10T02:55:03;47.06;39.59;58.79;;
72415;Laerm;60995;52.154;4.498;2023-06-10T02:57:19;44.89;39.25;53.75;;
72415;Laerm;60995;52.154;4.498;2023-06-10T02:59:35;46.20;40.01;54.99;;
72415;Laerm;60995;52.154;4.498;2023-06-10T03:01:52;44.99;39.20;55.13;;
72415;Laerm;60995;52.154;4.498;2023-06-10T03:04:08;45.80;40.06;55.82;;
72415;Laerm;60995;52.154;4.498;2023-06-10T03:06:25;45.74;40.08;53.33;;
72415;Laerm;60995;52.154;4.498;2023-06-10T03:08:42;45.04;39.91;56.21;;
72415;Laerm;60995;52.154;4.498;2023-06-10T03:10:58;45.18;39.40;52.40;;
72415;Laerm;60995;52.154;4.498;2023-06-10T03:13:15;44.87;39.76;55.02;;
72415;Laerm;60995;52.154;4.498;2023-06-10T03:15:31;45.63;40.86;53.20;;
72415;Laerm;60995;52.154;4.498;2023-06-10T03:17:48;46.25;40.95;55.70;;
72415;Laerm;60995;52.154;4.498;2023-06-10T03:20:06;46.22;41.00;56.48;;
72415;Laerm;60995;52.154;4.498;2023-06-10T03:22:24;46.74;40.58;55.92;;
72415;Laerm;60995;52.154;4.498;2023-06-10T03:24:40;45.48;40.60;62.90;;
72415;Laerm;60995;52.154;4.498;2023-06-10T03:26:56;46.56;40.92;54.68;;
72415;Laerm;60995;52.154;4.498;2023-06-10T03:29:13;47.55;41.59;55.95;;
72415;Laerm;60995;52.154;4.498;2023-06-10T03:31:29;45.93;41.07;58.56;;
72415;Laerm;60995;52.154;4.498;2023-06-10T03:33:45;45.62;40.40;53.61;;
72415;Laerm;60995;52.154;4.498;2023-06-10T03:36:02;46.23;41.00;60.01;;
72415;Laerm;60995;52.154;4.498;2023-06-10T03:38:19;46.55;41.25;58.74;;
72415;Laerm;60995;52.154;4.498;2023-06-10T03:40:35;46.54;41.07;56.12;;
72415;Laerm;60995;52.154;4.498;2023-06-10T03:42:51;47.08;41.05;57.54;;
72415;Laerm;60995;52.154;4.498;2023-06-10T03:45:08;47.30;41.22;56.83;;
72415;Laerm;60995;52.154;4.498;2023-06-10T03:47:24;48.02;41.76;56.44;;
72415;Laerm;60995;52.154;4.498;2023-06-10T03:49:41;47.17;41.91;54.87;;
72415;Laerm;60995;52.154;4.498;2023-06-10T03:51:57;46.63;41.27;63.08;;
72415;Laerm;60995;52.154;4.498;2023-06-10T03:54:14;47.77;41.32;59.96;;
72415;Laerm;60995;52.154;4.498;2023-06-10T03:56:31;47.28;41.34;59.63;;
72415;Laerm;60995;52.154;4.498;2023-06-10T03:58:48;51.80;41.78;77.14;;
72415;Laerm;60995;52.154;4.498;2023-06-10T04:01:04;46.74;40.65;55.21;;
72415;Laerm;60995;52.154;4.498;2023-06-10T04:03:21;46.43;40.95;54.98;;
72415;Laerm;60995;52.154;4.498;2023-06-10T04:05:37;46.13;40.89;56.28;;
72415;Laerm;60995;52.154;4.498;2023-06-10T04:07:53;47.25;41.07;56.85;;
72415;Laerm;60995;52.154;4.498;2023-06-10T04:10:11;46.10;39.88;53.90;;
72415;Laerm;60995;52.154;4.498;2023-06-10T04:12:27;46.59;41.05;55.74;;
72415;Laerm;60995;52.154;4.498;2023-06-10T04:14:43;47.05;41.48;58.35;;
72415;Laerm;60995;52.154;4.498;2023-06-10T04:17:00;47.14;42.18;57.07;;
72415;Laerm;60995;52.154;4.498;2023-06-10T04:19:16;47.17;41.47;56.32;;
72415;Laerm;60995;52.154;4.498;2023-06-10T04:21:32;47.06;41.52;55.45;;
72415;Laerm;60995;52.154;4.498;2023-06-10T04:23:49;46.56;41.05;53.26;;
72415;Laerm;60995;52.154;4.498;2023-06-10T04:26:05;47.21;40.99;55.29;;
72415;Laerm;60995;52.154;4.498;2023-06-10T04:28:22;47.61;41.43;56.62;;
72415;Laerm;60995;52.154;4.498;2023-06-10T04:30:38;47.68;42.04;54.59;;
72415;Laerm;60995;52.154;4.498;2023-06-10T04:32:55;46.21;41.33;54.86;;
72415;Laerm;60995;52.154;4.498;2023-06-10T04:35:12;46.45;40.90;54.56;;
72415;Laerm;60995;52.154;4.498;2023-06-10T04:37:31;51.57;42.15;75.08;;
72415;Laerm;60995;52.154;4.498;2023-06-10T04:39:48;46.85;41.27;67.27;;
72415;Laerm;60995;52.154;4.498;2023-06-10T04:42:04;46.97;40.91;54.90;;
72415;Laerm;60995;52.154;4.498;2023-06-10T04:44:21;46.11;39.74;54.27;;
72415;Laerm;60995;52.154;4.498;2023-06-10T04:46:38;48.04;41.73;57.08;;
72415;Laerm;60995;52.154;4.498;2023-06-10T04:48:55;46.69;40.48;55.16;;
72415;Laerm;60995;52.154;4.498;2023-06-10T04:51:11;47.57;40.01;58.48;;
72415;Laerm;60995;52.154;4.498;2023-06-10T04:53:27;53.12;39.85;72.42;;
72415;Laerm;60995;52.154;4.498;2023-06-10T04:55:44;47.87;40.59;58.84;;
72415;Laerm;60995;52.154;4.498;2023-06-10T04:58:01;47.49;41.70;54.57;;
72415;Laerm;60995;52.154;4.498;2023-06-10T05:00:18;47.72;42.01;60.59;;
72415;Laerm;60995;52.154;4.498;2023-06-10T05:02:34;47.76;41.67;56.31;;
72415;Laerm;60995;52.154;4.498;2023-06-10T05:04:50;47.86;40.85;63.79;;
72415;Laerm;60995;52.154;4.498;2023-06-10T05:07:07;47.33;40.20;63.79;;
72415;Laerm;60995;52.154;4.498;2023-06-10T05:09:23;47.01;40.37;59.42;;
72415;Laerm;60995;52.154;4.498;2023-06-10T05:11:39;47.43;41.05;59.10;;
72415;Laerm;60995;52.154;4.498;2023-06-10T05:13:56;46.35;40.24;55.54;;
72415;Laerm;60995;52.154;4.498;2023-06-10T05:16:12;46.36;40.95;54.60;;
72415;Laerm;60995;52.154;4.498;2023-06-10T05:18:29;48.69;42.32;61.48;;
72415;Laerm;60995;52.154;4.498;2023-06-10T05:20:45;48.07;42.32;58.68;;
72415;Laerm;60995;52.154;4.498;2023-06-10T05:23:02;48.80;40.80;59.73;;
72415;Laerm;60995;52.154;4.498;2023-06-10T05:25:19;47.55;41.57;56.57;;
72415;Laerm;60995;52.154;4.498;2023-06-10T05:27:36;48.46;41.76;59.00;;
72415;Laerm;60995;52.154;4.498;2023-06-10T05:29:52;48.50;41.07;65.23;;
72415;Laerm;60995;52.154;4.498;2023-06-10T05:32:08;48.78;41.76;63.24;;
72415;Laerm;60995;52.154;4.498;2023-06-10T05:34:25;48.34;41.87;60.82;;
72415;Laerm;60995;52.154;4.498;2023-06-10T05:36:41;47.68;41.27;64.15;;
72415;Laerm;60995;52.154;4.498;2023-06-10T05:38:57;48.12;41.02;59.93;;
72415;Laerm;60995;52.154;4.498;2023-06-10T05:41:14;49.05;41.55;62.03;;
72415;Laerm;60995;52.154;4.498;2023-06-10T05:43:33;47.58;40.67;57.35;;
72415;Laerm;60995;52.154;4.498;2023-06-10T05:45:50;51.16;40.37;59.66;;
72415;Laerm;60995;52.154;4.498;2023-06-10T05:48:06;49.55;42.48;64.11;;
72415;Laerm;60995;52.154;4.498;2023-06-10T05:50:24;48.14;40.85;62.97;;
72415;Laerm;60995;52.154;4.498;2023-06-10T05:52:40;48.45;41.60;63.24;;
72415;Laerm;60995;52.154;4.498;2023-06-10T05:54:57;49.34;42.14;63.83;;
72415;Laerm;60995;52.154;4.498;2023-06-10T05:57:13;48.51;41.24;62.03;;
72415;Laerm;60995;52.154;4.498;2023-06-10T05:59:32;50.18;40.54;65.75;;
72415;Laerm;60995;52.154;4.498;2023-06-10T06:01:49;49.58;41.14;65.33;;
72415;Laerm;60995;52.154;4.498;2023-06-10T06:04:06;47.22;41.23;56.87;;
72415;Laerm;60995;52.154;4.498;2023-06-10T06:06:22;47.65;40.93;56.71;;
72415;Laerm;60995;52.154;4.498;2023-06-10T06:08:39;47.63;40.20;57.16;;
72415;Laerm;60995;52.154;4.498;2023-06-10T06:10:55;49.14;40.37;60.72;;
72415;Laerm;60995;52.154;4.498;2023-06-10T06:13:11;48.63;40.59;59.31;;
72415;Laerm;60995;52.154;4.498;2023-06-10T06:15:28;49.76;39.77;65.55;;
72415;Laerm;60995;52.154;4.498;2023-06-10T06:17:44;49.35;39.77;66.42;;
72415;Laerm;60995;52.154;4.498;2023-06-10T06:20:02;49.83;40.62;64.13;;
72415;Laerm;60995;52.154;4.498;2023-06-10T06:22:19;48.39;40.14;56.82;;
72415;Laerm;60995;52.154;4.498;2023-06-10T06:24:37;50.11;40.43;63.77;;
72415;Laerm;60995;52.154;4.498;2023-06-10T06:26:53;49.29;39.61;69.56;;
72415;Laerm;60995;52.154;4.498;2023-06-10T06:29:09;48.10;40.52;56.54;;
72415;Laerm;60995;52.154;4.498;2023-06-10T06:31:26;47.72;39.69;60.07;;
72415;Laerm;60995;52.154;4.498;2023-06-10T06:33:42;50.16;40.88;66.74;;
72415;Laerm;60995;52.154;4.498;2023-06-10T06:35:58;51.28;42.42;66.87;;
72415;Laerm;60995;52.154;4.498;2023-06-10T06:38:16;50.31;41.09;64.84;;
72415;Laerm;60995;52.154;4.498;2023-06-10T06:40:32;51.99;40.57;67.38;;
72415;Laerm;60995;52.154;4.498;2023-06-10T06:42:48;50.34;39.44;66.75;;
72415;Laerm;60995;52.154;4.498;2023-06-10T06:45:06;50.73;40.17;65.12;;
72415;Laerm;60995;52.154;4.498;2023-06-10T06:47:22;51.12;39.60;66.66;;
72415;Laerm;60995;52.154;4.498;2023-06-10T06:49:38;52.20;40.13;71.73;;
72415;Laerm;60995;52.154;4.498;2023-06-10T06:51:55;51.00;40.89;67.59;;
72415;Laerm;60995;52.154;4.498;2023-06-10T06:54:11;50.36;41.87;63.12;;
72415;Laerm;60995;52.154;4.498;2023-06-10T06:56:29;49.59;40.23;59.59;;
72415;Laerm;60995;52.154;4.498;2023-06-10T06:58:45;49.01;40.12;63.30;;
72415;Laerm;60995;52.154;4.498;2023-06-10T07:01:01;52.80;40.59;66.00;;
72415;Laerm;60995;52.154;4.498;2023-06-10T07:03:17;50.69;42.01;72.60;;
72415;Laerm;60995;52.154;4.498;2023-06-10T07:05:34;50.06;41.05;68.90;;
72415;Laerm;60995;52.154;4.498;2023-06-10T07:07:50;49.35;40.26;61.38;;
72415;Laerm;60995;52.154;4.498;2023-06-10T07:10:11;48.80;39.97;65.51;;
72415;Laerm;60995;52.154;4.498;2023-06-10T07:12:27;49.29;40.01;62.69;;
72415;Laerm;60995;52.154;4.498;2023-06-10T07:14:44;48.21;39.62;60.97;;
72415;Laerm;60995;52.154;4.498;2023-06-10T07:17:00;50.21;40.51;64.84;;
72415;Laerm;60995;52.154;4.498;2023-06-10T07:19:16;50.49;40.27;68.24;;
72415;Laerm;60995;52.154;4.498;2023-06-10T07:21:33;49.49;39.57;61.04;;
72415;Laerm;60995;52.154;4.498;2023-06-10T07:23:49;49.51;40.14;60.04;;
72415;Laerm;60995;52.154;4.498;2023-06-10T07:26:09;49.28;40.19;59.38;;
72415;Laerm;60995;52.154;4.498;2023-06-10T07:28:29;49.65;39.42;59.15;;
72415;Laerm;60995;52.154;4.498;2023-06-10T07:30:45;51.07;41.24;62.75;;
72415;Laerm;60995;52.154;4.498;2023-06-10T07:33:01;50.62;40.70;70.86;;
72415;Laerm;60995;52.154;4.498;2023-06-10T07:35:18;51.85;41.11;64.13;;
72415;Laerm;60995;52.154;4.498;2023-06-10T07:37:34;53.54;40.15;65.95;;
72415;Laerm;60995;52.154;4.498;2023-06-10T07:39:51;54.90;40.49;69.29;;
72415;Laerm;60995;52.154;4.498;2023-06-10T07:42:08;49.72;39.79;61.68;;
72415;Laerm;60995;52.154;4.498;2023-06-10T07:44:24;53.40;42.57;63.58;;
72415;Laerm;60995;52.154;4.498;2023-06-10T07:46:40;50.19;40.24;65.73;;
72415;Laerm;60995;52.154;4.498;2023-06-10T07:48:57;50.32;39.13;61.72;;
72415;Laerm;60995;52.154;4.498;2023-06-10T07:51:13;50.97;40.49;60.82;;
72415;Laerm;60995;52.154;4.498;2023-06-10T07:53:29;50.70;39.29;64.83;;
72415;Laerm;60995;52.154;4.498;2023-06-10T07:55:45;51.35;39.78;62.53;;
72415;Laerm;60995;52.154;4.498;2023-06-10T07:58:02;51.35;40.18;63.93;;
72415;Laerm;60995;52.154;4.498;2023-06-10T08:00:21;49.57;38.74;61.71;;
72415;Laerm;60995;52.154;4.498;2023-06-10T08:02:38;50.85;40.01;63.57;;
72415;Laerm;60995;52.154;4.498;2023-06-10T08:04:55;50.48;40.56;60.95;;
72415;Laerm;60995;52.154;4.498;2023-06-10T08:07:12;61.56;39.46;77.09;;
72415;Laerm;60995;52.154;4.498;2023-06-10T08:09:31;58.80;40.32;78.52;;
72415;Laerm;60995;52.154;4.498;2023-06-10T08:11:47;56.82;42.22;71.91;;
72415;Laerm;60995;52.154;4.498;2023-06-10T08:14:03;50.18;39.02;60.04;;
72415;Laerm;60995;52.154;4.498;2023-06-10T08:16:20;50.46;40.31;60.81;;
72415;Laerm;60995;52.154;4.498;2023-06-10T08:18:36;51.08;41.88;60.43;;
72415;Laerm;60995;52.154;4.498;2023-06-10T08:20:52;50.74;41.19;71.34;;
72415;Laerm;60995;52.154;4.498;2023-06-10T08:23:09;49.70;39.80;59.83;;
72415;Laerm;60995;52.154;4.498;2023-06-10T08:25:25;49.81;40.97;60.18;;
72415;Laerm;60995;52.154;4.498;2023-06-10T08:27:42;50.96;40.92;61.61;;
72415;Laerm;60995;52.154;4.498;2023-06-10T08:29:58;50.31;39.07;60.64;;
72415;Laerm;60995;52.154;4.498;2023-06-10T08:32:16;51.34;38.01;65.20;;
72415;Laerm;60995;52.154;4.498;2023-06-10T08:34:36;50.28;40.23;60.06;;
72415;Laerm;60995;52.154;4.498;2023-06-10T08:36:52;51.46;41.03;66.70;;
72415;Laerm;60995;52.154;4.498;2023-06-10T08:39:11;51.01;40.16;62.14;;
72415;Laerm;60995;52.154;4.498;2023-06-10T08:41:30;51.50;40.77;63.56;;
72415;Laerm;60995;52.154;4.498;2023-06-10T08:44:21;51.66;39.96;64.17;;
72415;Laerm;60995;52.154;4.498;2023-06-10T08:46:45;51.27;41.02;62.08;;
72415;Laerm;60995;52.154;4.498;2023-06-10T08:49:06;50.59;40.84;63.72;;
72415;Laerm;60995;52.154;4.498;2023-06-10T08:51:29;51.03;41.90;63.80;;
72415;Laerm;60995;52.154;4.498;2023-06-10T08:54:03;50.87;39.08;61.47;;
72415;Laerm;60995;52.154;4.498;2023-06-10T08:56:21;55.35;41.53;81.97;;
72415;Laerm;60995;52.154;4.498;2023-06-10T08:58:42;53.19;39.80;67.30;;
72415;Laerm;60995;52.154;4.498;2023-06-10T09:00:59;52.63;42.20;63.99;;
72415;Laerm;60995;52.154;4.498;2023-06-10T09:03:16;51.51;40.95;61.16;;
72415;Laerm;60995;52.154;4.498;2023-06-10T09:05:36;51.06;40.78;61.18;;
72415;Laerm;60995;52.154;4.498;2023-06-10T09:07:57;50.49;39.58;61.14;;
72415;Laerm;60995;52.154;4.498;2023-06-10T09:10:13;50.49;39.22;61.61;;
72415;Laerm;60995;52.154;4.498;2023-06-10T09:12:30;51.43;40.46;63.93;;
72415;Laerm;60995;52.154;4.498;2023-06-10T09:14:46;51.27;42.14;62.32;;
72415;Laerm;60995;52.154;4.498;2023-06-10T09:17:04;51.21;41.95;62.01;;
72415;Laerm;60995;52.154;4.498;2023-06-10T09:19:27;51.04;40.08;62.26;;
72415;Laerm;60995;52.154;4.498;2023-06-10T09:21:51;51.67;41.96;65.49;;
72415;Laerm;60995;52.154;4.498;2023-06-10T09:24:09;53.40;40.20;68.69;;
72415;Laerm;60995;52.154;4.498;2023-06-10T09:26:35;50.95;40.18;61.30;;
72415;Laerm;60995;52.154;4.498;2023-06-10T09:29:12;51.01;38.87;64.32;;
72415;Laerm;60995;52.154;4.498;2023-06-10T09:31:35;50.03;38.65;61.36;;
72415;Laerm;60995;52.154;4.498;2023-06-10T09:34:39;53.20;41.37;62.59;;
72415;Laerm;60995;52.154;4.498;2023-06-10T09:36:58;59.58;48.61;71.36;;
72415;Laerm;60995;52.154;4.498;2023-06-10T09:39:36;53.88;42.18;63.87;;
72415;Laerm;60995;52.154;4.498;2023-06-10T09:44:41;50.19;37.64;60.37;;
72415;Laerm;60995;52.154;4.498;2023-06-10T09:47:05;50.26;38.62;62.01;;
72415;Laerm;60995;52.154;4.498;2023-06-10T09:52:32;50.51;38.33;66.16;;
72415;Laerm;60995;52.154;4.498;2023-06-10T09:54:48;50.72;41.23;60.37;;
72415;Laerm;60995;52.154;4.498;2023-06-10T09:57:08;51.48;40.82;63.40;;
72415;Laerm;60995;52.154;4.498;2023-06-10T09:59:31;50.25;41.02;61.29;;
72415;Laerm;60995;52.154;4.498;2023-06-10T10:01:58;52.92;41.42;66.34;;
72415;Laerm;60995;52.154;4.498;2023-06-10T10:04:26;51.65;42.73;68.85;;
72415;Laerm;60995;52.154;4.498;2023-06-10T10:06:43;50.82;40.71;60.08;;
72415;Laerm;60995;52.154;4.498;2023-06-10T10:09:02;55.94;40.48;73.53;;
72415;Laerm;60995;52.154;4.498;2023-06-10T10:11:27;62.11;39.65;79.05;;
72415;Laerm;60995;52.154;4.498;2023-06-10T10:13:49;51.02;41.66;60.87;;
72415;Laerm;60995;52.154;4.498;2023-06-10T10:16:17;50.68;39.40;62.79;;
72415;Laerm;60995;52.154;4.498;2023-06-10T10:18:43;51.85;41.54;65.96;;
72415;Laerm;60995;52.154;4.498;2023-06-10T10:21:07;50.72;41.09;62.00;;
72415;Laerm;60995;52.154;4.498;2023-06-10T10:24:09;51.06;41.41;64.72;;
72415;Laerm;60995;52.154;4.498;2023-06-10T10:26:31;50.30;39.91;60.84;;
72415;Laerm;60995;52.154;4.498;2023-06-10T10:31:18;52.29;41.03;68.16;;
72415;Laerm;60995;52.154;4.498;2023-06-10T10:33:54;50.76;39.75;62.13;;
72415;Laerm;60995;52.154;4.498;2023-06-10T10:36:13;51.40;41.63;63.52;;
72415;Laerm;60995;52.154;4.498;2023-06-10T10:38:31;51.25;41.03;66.68;;
72415;Laerm;60995;52.154;4.498;2023-06-10T10:40:48;52.41;40.63;67.99;;
72415;Laerm;60995;52.154;4.498;2023-06-10T10:43:06;54.11;42.30;76.76;;
72415;Laerm;60995;52.154;4.498;2023-06-10T10:45:23;51.36;41.49;61.38;;
72415;Laerm;60995;52.154;4.498;2023-06-10T10:47:41;61.04;40.65;77.84;;
72415;Laerm;60995;52.154;4.498;2023-06-10T10:49:58;52.79;42.15;72.03;;
72415;Laerm;60995;52.154;4.498;2023-06-10T10:52:16;52.36;40.93;63.74;;
72415;Laerm;60995;52.154;4.498;2023-06-10T10:54:36;50.51;41.12;65.68;;
72415;Laerm;60995;52.154;4.498;2023-06-10T10:57:19;50.91;42.00;61.94;;
72415;Laerm;60995;52.154;4.498;2023-06-10T10:59:55;53.55;42.20;67.70;;
72415;Laerm;60995;52.154;4.498;2023-06-10T11:02:19;50.89;41.45;60.82;;
72415;Laerm;60995;52.154;4.498;2023-06-10T11:04:48;51.48;40.88;72.11;;
72415;Laerm;60995;52.154;4.498;2023-06-10T11:07:08;50.82;39.82;64.77;;
72415;Laerm;60995;52.154;4.498;2023-06-10T11:09:28;52.84;42.05;63.46;;
72415;Laerm;60995;52.154;4.498;2023-06-10T11:11:51;51.57;41.84;60.95;;
72415;Laerm;60995;52.154;4.498;2023-06-10T11:14:08;51.08;41.20;63.65;;
72415;Laerm;60995;52.154;4.498;2023-06-10T11:16:27;52.84;42.49;74.71;;
72415;Laerm;60995;52.154;4.498;2023-06-10T11:18:53;51.82;42.02;71.47;;
72415;Laerm;60995;52.154;4.498;2023-06-10T11:21:10;51.18;41.29;65.63;;
72415;Laerm;60995;52.154;4.498;2023-06-10T11:25:50;52.86;42.21;66.57;;
72415;Laerm;60995;52.154;4.498;2023-06-10T11:28:19;65.62;43.98;83.19;;
72415;Laerm;60995;52.154;4.498;2023-06-10T11:30:36;51.51;41.57;67.43;;
72415;Laerm;60995;52.154;4.498;2023-06-10T11:32:52;49.91;39.26;60.69;;
72415;Laerm;60995;52.154;4.498;2023-06-10T11:35:09;50.96;39.78;63.13;;
72415;Laerm;60995;52.154;4.498;2023-06-10T11:37:25;52.69;41.93;64.49;;
72415;Laerm;60995;52.154;4.498;2023-06-10T11:39:42;52.12;40.45;70.20;;
72415;Laerm;60995;52.154;4.498;2023-06-10T11:41:59;53.51;41.43;66.18;;
72415;Laerm;60995;52.154;4.498;2023-06-10T11:44:15;52.20;43.46;67.33;;
72415;Laerm;60995;52.154;4.498;2023-06-10T11:46:33;52.58;39.86;72.81;;
72415;Laerm;60995;52.154;4.498;2023-06-10T11:48:57;52.56;40.75;71.32;;
72415;Laerm;60995;52.154;4.498;2023-06-10T11:51:13;53.46;41.34;67.93;;
72415;Laerm;60995;52.154;4.498;2023-06-10T11:53:30;52.50;42.69;68.03;;
72415;Laerm;60995;52.154;4.498;2023-06-10T11:55:50;51.05;41.21;72.49;;
72415;Laerm;60995;52.154;4.498;2023-06-10T11:58:21;54.63;42.16;72.55;;
72415;Laerm;60995;52.154;4.498;2023-06-10T12:00:45;52.06;40.88;67.06;;
72415;Laerm;60995;52.154;4.498;2023-06-10T12:03:02;51.27;40.89;70.53;;
72415;Laerm;60995;52.154;4.498;2023-06-10T12:05:19;51.70;41.23;67.52;;
72415;Laerm;60995;52.154;4.498;2023-06-10T12:07:37;51.89;41.13;67.24;;
72415;Laerm;60995;52.154;4.498;2023-06-10T12:09:59;52.21;40.81;66.55;;
72415;Laerm;60995;52.154;4.498;2023-06-10T12:12:16;51.34;41.55;63.43;;
72415;Laerm;60995;52.154;4.498;2023-06-10T12:17:12;50.44;39.52;60.22;;
72415;Laerm;60995;52.154;4.498;2023-06-10T12:19:28;51.53;40.64;61.04;;
72415;Laerm;60995;52.154;4.498;2023-06-10T12:21:46;50.31;39.01;69.67;;
72415;Laerm;60995;52.154;4.498;2023-06-10T12:24:08;59.67;40.64;77.80;;
72415;Laerm;60995;52.154;4.498;2023-06-10T12:26:35;52.00;40.87;62.43;;
72415;Laerm;60995;52.154;4.498;2023-06-10T12:28:52;51.33;40.51;66.76;;
72415;Laerm;60995;52.154;4.498;2023-06-10T12:31:08;52.36;41.13;69.28;;
72415;Laerm;60995;52.154;4.498;2023-06-10T12:33:26;51.15;41.81;64.10;;
72415;Laerm;60995;52.154;4.498;2023-06-10T12:35:51;50.77;41.40;66.79;;
72415;Laerm;60995;52.154;4.498;2023-06-10T12:38:08;51.04;40.65;60.98;;
72415;Laerm;60995;52.154;4.498;2023-06-10T12:40:34;51.31;42.30;63.72;;
72415;Laerm;60995;52.154;4.498;2023-06-10T12:42:51;53.12;42.61;73.48;;
72415;Laerm;60995;52.154;4.498;2023-06-10T12:45:08;50.41;40.32;69.95;;
72415;Laerm;60995;52.154;4.498;2023-06-10T12:47:36;51.13;41.56;71.11;;
72415;Laerm;60995;52.154;4.498;2023-06-10T12:49:54;51.23;40.85;69.93;;
72415;Laerm;60995;52.154;4.498;2023-06-10T12:52:10;51.48;41.18;67.01;;
72415;Laerm;60995;52.154;4.498;2023-06-10T12:54:26;50.19;41.46;59.58;;
72415;Laerm;60995;52.154;4.498;2023-06-10T12:56:43;59.33;41.85;73.97;;
72415;Laerm;60995;52.154;4.498;2023-06-10T12:58:59;50.79;41.70;59.93;;
72415;Laerm;60995;52.154;4.498;2023-06-10T13:01:15;51.42;41.48;67.19;;
72415;Laerm;60995;52.154;4.498;2023-06-10T13:03:32;53.33;41.64;71.56;;
72415;Laerm;60995;52.154;4.498;2023-06-10T13:05:48;51.48;41.01;68.58;;
72415;Laerm;60995;52.154;4.498;2023-06-10T13:08:08;52.53;40.60;74.48;;
72415;Laerm;60995;52.154;4.498;2023-06-10T13:10:28;49.36;39.51;58.39;;
72415;Laerm;60995;52.154;4.498;2023-06-10T13:12:45;49.98;40.85;67.04;;